createdAt,value
2017-09-27T00:00:32.732Z,42.85
2017-09-27T00:03:00.241Z,39.35
2017-09-27T00:05:27.769Z,44.45
2017-09-27T00:07:55.317Z,41.70
2017-09-27T00:10:22.854Z,41.58
2017-09-27T00:12:50.405Z,42.55
2017-09-27T00:15:18.711Z,41.88
2017-09-27T00:17:46.227Z,39.67
2017-09-27T00:20:13.751Z,42.65
2017-09-27T00:22:41.271Z,42.80
2017-09-27T00:25:09.548Z,41.67
2017-09-27T00:27:37.053Z,41.50
2017-09-27T00:30:04.610Z,43.78
2017-09-27T00:32:32.120Z,43.13
2017-09-27T00:35:00.415Z,44.55
2017-09-27T00:37:27.920Z,45.45
2017-09-27T00:39:55.444Z,42.35
2017-09-27T00:42:22.954Z,43.97
2017-09-27T00:44:50.460Z,44.15
2017-09-27T00:47:17.976Z,43.10
2017-09-27T00:49:45.516Z,42.75
2017-09-27T00:52:13.041Z,43.60
2017-09-27T00:54:40.555Z,45.17
2017-09-27T00:57:08.088Z,49.25
2017-09-27T00:59:35.608Z,45.67
2017-09-27T01:02:03.127Z,47.90
2017-09-27T01:04:30.638Z,48.85
2017-09-27T01:06:58.969Z,49.30
2017-09-27T01:09:27.253Z,48.45
2017-09-27T01:11:55.527Z,47.70
2017-09-27T01:14:23.803Z,48.45
2017-09-27T01:16:51.307Z,51.20
2017-09-27T01:19:18.828Z,46.50
2017-09-27T01:21:46.336Z,48.35
2017-09-27T01:24:13.880Z,49.10
2017-09-27T01:26:41.402Z,47.42
2017-09-27T01:29:08.908Z,50.42
2017-09-27T01:31:36.417Z,48.55
2017-09-27T01:34:04.684Z,55.65
2017-09-27T01:36:32.269Z,50.63
2017-09-27T01:38:59.784Z,48.53
2017-09-27T01:41:27.288Z,43.78
2017-09-27T01:43:54.799Z,50.22
2017-09-27T01:46:22.333Z,48.45
2017-09-27T01:48:49.848Z,46.47
2017-09-27T01:51:18.131Z,49.88
2017-09-27T01:53:46.421Z,52.03
2017-09-27T01:56:14.679Z,47.78
2017-09-27T01:58:42.956Z,46.47
2017-09-27T02:01:11.238Z,48.67
2017-09-27T02:03:39.525Z,48.50
2017-09-27T02:06:07.859Z,50.95
2017-09-27T02:08:35.356Z,50.25
2017-09-27T02:11:02.885Z,49.40
2017-09-27T02:13:30.381Z,47.10
2017-09-27T02:15:58.663Z,44.20
2017-09-27T02:18:26.188Z,50.83
2017-09-27T02:20:53.685Z,46.92
2017-09-27T02:23:21.194Z,45.53
2017-09-27T02:25:48.711Z,48.78
2017-09-27T02:28:16.236Z,48.47
2017-09-27T02:30:43.732Z,43.97
2017-09-27T02:33:11.235Z,48.83
2017-09-27T02:35:39.037Z,46.37
2017-09-27T02:38:06.556Z,46.50
2017-09-27T02:40:34.076Z,48.80
2017-09-27T02:43:01.594Z,48.47
2017-09-27T02:45:29.108Z,45.55
2017-09-27T02:47:56.639Z,48.83
2017-09-27T02:50:24.913Z,47.75
2017-09-27T02:52:53.191Z,46.10
2017-09-27T02:55:21.469Z,49.03
2017-09-27T02:57:49.002Z,50.03
2017-09-27T03:00:16.517Z,46.70
2017-09-27T03:02:44.011Z,46.08
2017-09-27T03:05:11.537Z,43.22
2017-09-27T03:07:39.097Z,44.35
2017-09-27T03:10:06.610Z,46.60
2017-09-27T03:12:34.896Z,45.92
2017-09-27T03:15:03.165Z,46.50
2017-09-27T03:17:31.453Z,44.10
2017-09-27T03:19:59.733Z,45.42
2017-09-27T03:22:27.259Z,43.72
2017-09-27T03:24:54.778Z,45.88
2017-09-27T03:27:22.294Z,48.45
2017-09-27T03:29:50.562Z,45.88
2017-09-27T03:32:18.073Z,47.30
2017-09-27T03:34:45.582Z,47.60
2017-09-27T03:37:13.097Z,45.92
2017-09-27T03:39:40.603Z,45.95
2017-09-27T03:42:08.882Z,45.40
2017-09-27T03:44:37.155Z,45.53
2017-09-27T03:47:05.450Z,43.08
2017-09-27T03:49:33.733Z,46.33
2017-09-27T03:52:01.260Z,44.47
2017-09-27T03:54:28.776Z,45.72
2017-09-27T03:56:56.314Z,45.50
2017-09-27T03:59:23.813Z,44.20
2017-09-27T04:01:51.326Z,43.78
2017-09-27T04:04:18.836Z,45.60
2017-09-27T04:06:46.339Z,46.83
2017-09-27T04:09:14.617Z,47.67
2017-09-27T04:11:42.144Z,48.13
2017-09-27T04:14:09.666Z,48.60
2017-09-27T04:16:37.178Z,48.17
2017-09-27T04:19:05.456Z,46.08
2017-09-27T04:21:32.975Z,49.70
2017-09-27T04:24:00.487Z,47.30
2017-09-27T04:26:27.996Z,46.37
2017-09-27T04:28:55.526Z,48.35
2017-09-27T04:31:23.043Z,44.97
2017-09-27T04:33:50.546Z,47.80
2017-09-27T04:36:18.067Z,45.45
2017-09-27T04:38:46.361Z,47.90
2017-09-27T04:41:14.704Z,47.97
2017-09-27T04:43:42.223Z,54.17
2017-09-27T04:46:09.733Z,46.33
2017-09-27T04:48:37.254Z,49.13
2017-09-27T04:51:04.760Z,47.20
2017-09-27T04:53:32.272Z,48.15
2017-09-27T04:55:59.787Z,46.75
2017-09-27T04:58:28.067Z,45.80
2017-09-27T05:00:56.348Z,45.33
2017-09-27T05:03:24.614Z,46.55
2017-09-27T05:05:52.910Z,49.67
2017-09-27T05:08:20.444Z,51.78
2017-09-27T05:10:47.948Z,49.90
2017-09-27T05:13:15.463Z,48.87
2017-09-27T05:15:43.795Z,53.08
2017-09-27T05:18:11.305Z,50.40
2017-09-27T05:20:39.594Z,47.03
2017-09-27T05:23:07.099Z,50.88
2017-09-27T05:25:34.595Z,45.17
2017-09-27T05:28:02.867Z,48.10
2017-09-27T05:30:30.386Z,50.33
2017-09-27T05:32:57.910Z,47.60
2017-09-27T05:35:25.458Z,46.60
2017-09-27T05:37:53.754Z,49.63
2017-09-27T05:40:21.269Z,47.45
2017-09-27T05:42:48.788Z,52.53
2017-09-27T05:45:16.301Z,49.88
2017-09-27T05:47:43.833Z,48.22
2017-09-27T05:50:11.365Z,51.92
2017-09-27T05:52:38.923Z,48.38
2017-09-27T05:55:06.469Z,48.05
2017-09-27T05:57:33.981Z,51.17
2017-09-27T06:00:01.490Z,51.47
2017-09-27T06:02:29.002Z,49.47
2017-09-27T06:04:56.531Z,51.30
2017-09-27T06:07:24.061Z,50.97
2017-09-27T06:09:52.339Z,53.28
2017-09-27T06:12:20.652Z,53.22
2017-09-27T06:14:48.195Z,54.75
2017-09-27T06:17:15.855Z,52.42
2017-09-27T06:19:43.352Z,50.00
2017-09-27T06:22:10.883Z,48.87
2017-09-27T06:24:38.379Z,52.80
2017-09-27T06:27:05.895Z,46.75
2017-09-27T06:29:33.429Z,47.38
2017-09-27T06:32:01.733Z,46.05
2017-09-27T06:34:29.259Z,49.20
2017-09-27T06:36:56.770Z,48.87
2017-09-27T06:39:24.288Z,48.83
2017-09-27T06:41:52.608Z,50.53
2017-09-27T06:44:20.119Z,46.35
2017-09-27T06:46:47.643Z,46.15
2017-09-27T06:49:15.192Z,46.85
2017-09-27T06:51:42.782Z,46.25
2017-09-27T06:54:10.295Z,46.15
2017-09-27T06:56:37.907Z,49.65
2017-09-27T06:59:06.176Z,46.67
2017-09-27T07:01:33.691Z,44.65
2017-09-27T07:04:01.200Z,46.80
2017-09-27T07:06:28.712Z,46.40
2017-09-27T07:08:56.218Z,46.03
2017-09-27T07:11:24.522Z,44.05
2017-09-27T07:13:52.043Z,50.28
2017-09-27T07:16:19.556Z,48.92
2017-09-27T07:18:47.753Z,45.78
2017-09-27T07:21:15.275Z,51.05
2017-09-27T07:23:42.821Z,47.85
2017-09-27T07:26:11.107Z,49.10
2017-09-27T07:28:38.624Z,50.47
2017-09-27T07:31:06.134Z,46.30
2017-09-27T07:33:33.811Z,47.95
2017-09-27T07:36:01.341Z,45.25
2017-09-27T07:38:29.640Z,44.33
2017-09-27T07:40:57.181Z,45.92
2017-09-27T07:43:24.723Z,43.90
2017-09-27T07:45:53.008Z,43.38
2017-09-27T07:48:21.288Z,43.70
2017-09-27T07:50:49.615Z,44.20
2017-09-27T07:53:17.140Z,45.70
2017-09-27T07:55:44.649Z,45.00
2017-09-27T07:58:12.163Z,45.20
2017-09-27T08:00:39.690Z,43.42
2017-09-27T08:03:07.219Z,44.42
2017-09-27T08:05:34.737Z,41.28
2017-09-27T08:08:02.274Z,43.83
2017-09-27T08:10:29.789Z,48.15
2017-09-27T08:12:57.301Z,45.15
2017-09-27T08:15:25.617Z,43.42
2017-09-27T08:17:53.140Z,47.62
2017-09-27T08:20:20.661Z,46.53
2017-09-27T08:22:48.241Z,42.95
2017-09-27T08:25:15.785Z,44.92
2017-09-27T08:27:43.298Z,43.92
2017-09-27T08:30:10.837Z,45.38
2017-09-27T08:32:39.123Z,49.17
2017-09-27T08:35:06.817Z,48.28
2017-09-27T08:37:34.362Z,49.58
2017-09-27T08:40:01.879Z,46.10
2017-09-27T08:42:29.380Z,48.22
2017-09-27T08:44:56.912Z,48.25
2017-09-27T08:47:25.224Z,46.40
2017-09-27T08:49:52.752Z,46.28
2017-09-27T08:52:20.277Z,51.42
2017-09-27T08:54:47.791Z,53.50
2017-09-27T08:57:15.329Z,50.63
2017-09-27T08:59:42.847Z,51.78
2017-09-27T09:02:10.371Z,50.88
2017-09-27T09:04:37.903Z,48.67
2017-09-27T09:07:05.427Z,58.58
2017-09-27T09:09:32.944Z,51.00
2017-09-27T09:12:00.475Z,51.47
2017-09-27T09:14:27.984Z,51.28
2017-09-27T09:16:55.499Z,48.33
2017-09-27T09:19:23.788Z,46.88
2017-09-27T09:21:52.064Z,53.92
2017-09-27T09:24:20.344Z,48.53
2017-09-27T09:26:48.622Z,50.03
2017-09-27T09:29:16.143Z,49.42
2017-09-27T09:31:43.710Z,48.38
2017-09-27T09:34:11.341Z,47.25
2017-09-27T09:36:38.850Z,47.90
2017-09-27T09:39:07.163Z,44.08
2017-09-27T09:41:34.680Z,46.75
2017-09-27T09:44:02.248Z,49.92
2017-09-27T09:46:30.550Z,50.75
2017-09-27T09:48:58.053Z,46.20
2017-09-27T09:51:25.554Z,47.00
2017-09-27T09:53:53.073Z,56.85
2017-09-27T09:56:20.588Z,47.92
2017-09-27T09:58:48.108Z,45.97
2017-09-27T10:01:15.642Z,47.60
2017-09-27T10:03:43.219Z,43.72
2017-09-27T10:06:10.729Z,42.20
2017-09-27T10:08:38.589Z,43.95
2017-09-27T10:11:06.115Z,42.90
2017-09-27T10:13:34.411Z,40.83
2017-09-27T10:16:02.692Z,41.83
2017-09-27T10:18:30.227Z,45.67
2017-09-27T10:27:42.048Z,38.30
2017-09-27T10:30:09.568Z,36.45
2017-09-27T10:32:37.092Z,37.50
2017-09-27T10:35:04.617Z,36.97
2017-09-27T10:37:32.132Z,38.70
2017-09-27T10:39:59.679Z,37.50
2017-09-27T10:42:27.192Z,36.47
2017-09-27T10:44:54.827Z,35.72
2017-09-27T10:47:22.384Z,35.38
2017-09-27T10:49:49.912Z,36.85
2017-09-27T10:52:17.440Z,36.20
2017-09-27T10:54:45.067Z,34.47
2017-09-27T10:57:12.602Z,36.15
2017-09-27T10:59:40.899Z,36.40
2017-09-27T11:02:08.438Z,33.38
2017-09-27T11:04:35.945Z,32.47
2017-09-27T11:07:03.460Z,33.05
2017-09-27T11:09:31.866Z,33.95
2017-09-27T11:11:59.379Z,32.03
2017-09-27T11:14:26.878Z,29.63
2017-09-27T11:16:54.381Z,31.75
2017-09-27T11:19:21.892Z,33.30
2017-09-27T11:21:49.409Z,30.92
2017-09-27T11:24:16.931Z,30.75
2017-09-27T11:26:44.447Z,31.48
2017-09-27T11:29:11.961Z,31.70
2017-09-27T11:31:39.479Z,33.33
2017-09-27T11:34:06.982Z,30.40
2017-09-27T11:36:34.496Z,32.17
2017-09-27T11:39:02.021Z,32.38
2017-09-27T11:41:29.530Z,29.63
2017-09-27T11:43:57.054Z,29.05
2017-09-27T11:46:24.624Z,28.30
2017-09-27T11:48:52.911Z,28.52
2017-09-27T11:51:20.442Z,26.90
2017-09-27T11:53:47.973Z,22.87
2017-09-27T11:56:15.515Z,24.08
2017-09-27T11:58:43.072Z,25.35
2017-09-27T12:01:10.640Z,23.30
2017-09-27T12:03:38.155Z,24.20
2017-09-27T12:06:05.727Z,24.65
2017-09-27T12:08:33.246Z,24.05
2017-09-27T12:11:00.784Z,25.77
2017-09-27T12:13:28.287Z,24.77
2017-09-27T12:15:55.815Z,25.25
2017-09-27T12:18:23.347Z,26.08
2017-09-27T12:20:50.866Z,23.87
2017-09-27T12:23:19.155Z,27.67
2017-09-27T12:32:31.793Z,25.80
2017-09-27T12:34:59.312Z,24.98
2017-09-27T12:37:26.840Z,24.20
2017-09-27T12:39:54.423Z,25.67
2017-09-27T12:42:21.944Z,27.20
2017-09-27T12:44:50.233Z,26.87
2017-09-27T12:47:18.499Z,26.52
2017-09-27T12:49:46.808Z,25.20
2017-09-27T12:52:14.333Z,24.90
2017-09-27T12:54:41.899Z,23.02
2017-09-27T12:57:10.205Z,22.70
2017-09-27T12:59:37.722Z,22.15
2017-09-27T13:02:05.228Z,22.20
2017-09-27T13:04:32.754Z,19.52
2017-09-27T13:07:01.032Z,19.62
2017-09-27T13:09:28.562Z,20.17
2017-09-27T13:11:56.081Z,20.90
2017-09-27T13:14:23.599Z,20.98
2017-09-27T13:16:51.879Z,21.80
2017-09-27T13:19:20.175Z,19.85
2017-09-27T13:21:47.696Z,24.17
2017-09-27T13:24:15.196Z,21.67
2017-09-27T13:26:43.056Z,21.05
2017-09-27T13:29:11.328Z,20.58
2017-09-27T13:31:38.841Z,18.55
2017-09-27T13:34:06.349Z,19.15
2017-09-27T13:36:34.620Z,21.20
2017-09-27T13:39:02.923Z,20.55
2017-09-27T13:41:30.438Z,21.12
2017-09-27T13:43:57.976Z,19.00
2017-09-27T13:46:25.486Z,20.90
2017-09-27T13:48:57.037Z,20.17
2017-09-27T13:51:24.731Z,22.65
2017-09-27T13:53:52.229Z,18.62
2017-09-27T13:56:19.864Z,17.50
2017-09-27T13:58:47.379Z,19.02
2017-09-27T14:01:14.925Z,21.27
2017-09-27T14:03:43.216Z,20.55
2017-09-27T14:06:11.496Z,21.98
2017-09-27T14:08:39.031Z,22.27
2017-09-27T14:11:06.545Z,21.58
2017-09-27T14:13:34.095Z,19.50
2017-09-27T14:16:01.616Z,19.87
2017-09-27T14:18:29.144Z,20.45
2017-09-27T14:20:56.673Z,20.65
2017-09-27T14:23:24.186Z,19.50
2017-09-27T14:25:51.732Z,18.20
2017-09-27T14:28:19.274Z,18.52
2017-09-27T14:30:47.650Z,20.40
2017-09-27T14:33:15.199Z,19.25
2017-09-27T14:35:43.286Z,19.70
2017-09-27T14:38:10.869Z,17.95
2017-09-27T14:40:38.395Z,20.80
2017-09-27T14:43:05.967Z,19.85
2017-09-27T14:45:33.465Z,20.60
2017-09-27T14:48:01.745Z,20.70
2017-09-27T14:50:30.026Z,21.50
2017-09-27T14:52:58.359Z,21.20
2017-09-27T14:55:25.864Z,18.37
2017-09-27T14:57:53.386Z,18.65
2017-09-27T15:00:20.929Z,16.33
2017-09-27T15:02:48.460Z,19.12
2017-09-27T15:05:15.988Z,17.50
2017-09-27T15:07:44.296Z,19.33
2017-09-27T15:10:11.866Z,17.75
2017-09-27T15:12:46.667Z,19.15
2017-09-27T15:15:14.314Z,17.65
2017-09-27T15:17:41.847Z,15.82
2017-09-27T15:20:09.402Z,16.42
2017-09-27T15:22:37.135Z,19.05
2017-09-27T15:25:04.675Z,18.27
2017-09-27T15:27:32.947Z,20.15
2017-09-27T15:30:01.284Z,19.55
2017-09-27T15:32:28.866Z,19.27
2017-09-27T15:34:56.487Z,17.05
2017-09-27T15:37:24.032Z,17.92
2017-09-27T15:39:51.611Z,18.02
2017-09-27T15:42:19.132Z,18.12
2017-09-27T15:44:46.823Z,19.10
2017-09-27T15:47:14.404Z,17.10
2017-09-27T15:49:41.979Z,18.75
2017-09-27T15:52:09.517Z,17.90
2017-09-27T15:54:37.102Z,17.27
2017-09-27T15:57:04.652Z,18.10
2017-09-27T15:59:32.429Z,17.08
2017-09-27T16:02:00.568Z,17.00
2017-09-27T16:04:28.151Z,17.55
2017-09-27T16:06:55.720Z,17.33
2017-09-27T16:09:23.232Z,17.70
2017-09-27T16:11:50.737Z,18.70
2017-09-27T16:14:18.285Z,18.95
2017-09-27T16:16:45.940Z,18.75
2017-09-27T16:19:13.494Z,25.55
2017-09-27T16:21:41.034Z,17.27
2017-09-27T16:24:08.577Z,18.12
2017-09-27T16:26:37.619Z,17.73
2017-09-27T16:29:05.153Z,17.02
2017-09-27T16:31:32.694Z,16.50
2017-09-27T16:34:00.324Z,18.40
2017-09-27T16:36:27.906Z,17.98
2017-09-27T16:38:56.216Z,21.12
2017-09-27T16:41:23.743Z,19.00
2017-09-27T16:43:51.318Z,20.45
2017-09-27T16:46:19.647Z,22.35
2017-09-27T16:48:47.165Z,18.10
2017-09-27T16:51:14.677Z,18.65
2017-09-27T16:53:42.189Z,18.30
2017-09-27T16:56:09.715Z,19.42
2017-09-27T16:58:37.232Z,21.50
2017-09-27T17:01:04.755Z,16.08
2017-09-27T17:03:32.295Z,17.70
2017-09-27T17:06:00.020Z,18.15
2017-09-27T17:08:27.556Z,15.85
2017-09-27T17:10:55.091Z,15.77
2017-09-27T17:13:22.960Z,17.17
2017-09-27T17:15:50.464Z,19.00
2017-09-27T17:18:17.966Z,16.77
2017-09-27T17:20:46.248Z,17.58
2017-09-27T17:23:15.308Z,18.55
2017-09-27T17:25:43.713Z,16.90
2017-09-27T17:28:11.242Z,16.90
2017-09-27T17:30:38.772Z,17.55
2017-09-27T17:33:06.317Z,18.42
2017-09-27T17:35:33.950Z,17.02
2017-09-27T17:38:01.507Z,18.23
2017-09-27T17:40:29.035Z,18.77
2017-09-27T17:42:56.662Z,17.55
2017-09-27T17:45:24.206Z,18.58
2017-09-27T17:47:51.738Z,18.27
2017-09-27T17:50:19.267Z,18.90
2017-09-27T17:52:46.791Z,19.92
2017-09-27T17:55:14.313Z,17.23
2017-09-27T17:57:41.864Z,24.02
2017-09-27T18:00:09.391Z,21.00
2017-09-27T18:02:36.912Z,19.25
2017-09-27T18:05:21.024Z,18.20
2017-09-27T18:07:54.186Z,17.83
2017-09-27T18:10:38.374Z,17.95
2017-09-27T18:13:15.435Z,18.90
2017-09-27T18:15:55.519Z,17.83
2017-09-27T18:18:36.720Z,17.25
2017-09-27T18:21:04.254Z,21.62
2017-09-27T18:23:31.789Z,18.95
2017-09-27T18:25:59.293Z,18.55
2017-09-27T18:28:26.818Z,18.05
2017-09-27T18:30:54.872Z,18.00
2017-09-27T18:33:22.401Z,17.90
2017-09-27T18:35:50.703Z,17.52
2017-09-27T18:38:18.211Z,16.45
2017-09-27T18:40:52.134Z,17.80
2017-09-27T18:43:20.446Z,17.45
2017-09-27T18:45:47.961Z,18.12
2017-09-27T18:48:15.496Z,18.70
2017-09-27T18:50:43.040Z,17.67
2017-09-27T18:53:10.651Z,17.27
2017-09-27T18:55:38.969Z,17.70
2017-09-27T18:58:10.403Z,17.45
2017-09-27T19:00:37.929Z,17.60
2017-09-27T19:03:05.508Z,17.48
2017-09-27T19:05:33.134Z,42.22
2017-09-27T19:08:00.666Z,17.97
2017-09-27T19:10:28.201Z,18.20
2017-09-27T19:12:55.744Z,18.20
2017-09-27T19:15:23.267Z,20.30
2017-09-27T19:17:50.792Z,18.52
2017-09-27T19:20:18.547Z,17.92
2017-09-27T19:22:46.088Z,17.50
2017-09-27T19:25:14.518Z,19.27
2017-09-27T19:27:42.052Z,18.10
2017-09-27T19:30:09.561Z,19.98
2017-09-27T19:32:37.936Z,22.35
2017-09-27T19:35:05.511Z,19.62
2017-09-27T19:37:33.064Z,21.98
2017-09-27T19:40:00.583Z,30.40
2017-09-27T19:42:28.103Z,19.10
2017-09-27T19:44:55.637Z,18.42
2017-09-27T19:47:23.193Z,19.83
2017-09-27T19:49:50.856Z,18.67
2017-09-27T19:52:18.422Z,18.77
2017-09-27T19:54:46.037Z,18.77
2017-09-27T19:57:13.638Z,19.15
2017-09-27T19:59:41.218Z,20.42
2017-09-27T20:02:09.568Z,20.00
2017-09-27T20:04:37.166Z,20.35
2017-09-27T20:07:04.704Z,18.40
2017-09-27T20:09:32.263Z,18.87
2017-09-27T20:11:59.881Z,18.80
2017-09-27T20:14:27.407Z,18.15
2017-09-27T20:16:55.854Z,17.80
2017-09-27T20:19:23.388Z,16.33
2017-09-27T20:21:50.984Z,18.07
2017-09-27T20:24:18.512Z,18.70
2017-09-27T20:26:46.024Z,19.40
2017-09-27T20:29:13.581Z,21.98
2017-09-27T20:31:41.095Z,23.35
2017-09-27T20:34:08.643Z,20.45
2017-09-27T20:36:36.186Z,18.60
2017-09-27T20:39:04.530Z,18.50
2017-09-27T20:41:32.101Z,19.00
2017-09-27T20:44:01.518Z,19.08
2017-09-27T20:46:29.073Z,18.60
2017-09-27T20:48:57.401Z,20.37
2017-09-27T20:51:24.959Z,19.08
2017-09-27T20:53:52.472Z,18.67
2017-09-27T20:56:20.768Z,41.75
2017-09-27T20:58:48.283Z,19.30
2017-09-27T21:01:15.799Z,18.67
2017-09-27T21:03:44.264Z,17.60
2017-09-27T21:06:11.799Z,17.87
2017-09-27T21:08:39.330Z,18.85
2017-09-27T21:11:06.873Z,18.85
2017-09-27T21:13:34.412Z,19.48
2017-09-27T21:16:01.925Z,18.80
2017-09-27T21:18:29.450Z,18.70
2017-09-27T21:20:56.973Z,19.00
2017-09-27T21:23:25.310Z,18.50
2017-09-27T21:25:52.844Z,18.15
2017-09-27T21:28:20.391Z,20.00
2017-09-27T21:30:48.472Z,18.45
2017-09-27T21:33:16.197Z,18.52
2017-09-27T21:35:43.752Z,18.50
2017-09-27T21:38:12.032Z,19.30
2017-09-27T21:40:40.324Z,20.40
2017-09-27T21:43:08.647Z,18.60
2017-09-27T21:45:36.190Z,21.30
2017-09-27T21:48:03.732Z,18.70
2017-09-27T21:50:31.249Z,19.27
2017-09-27T21:52:58.807Z,18.80
2017-09-27T21:55:36.231Z,21.70
2017-09-27T21:58:03.860Z,24.42
2017-09-27T22:00:31.426Z,21.25
2017-09-27T22:02:59.045Z,21.52
2017-09-27T22:05:26.602Z,18.35
2017-09-27T22:07:54.147Z,20.33
2017-09-27T22:10:21.663Z,17.52
2017-09-27T22:12:49.191Z,19.37
2017-09-27T22:15:16.703Z,19.12
2017-09-27T22:17:44.215Z,19.40
2017-09-27T22:20:11.743Z,19.30
2017-09-27T22:22:39.269Z,18.52
2017-09-27T22:25:06.782Z,19.30
2017-09-27T22:27:34.343Z,18.05
2017-09-27T22:30:01.919Z,17.67
2017-09-27T22:32:29.547Z,18.15
2017-09-27T22:34:57.080Z,18.20
2017-09-27T22:37:24.637Z,21.75
2017-09-27T22:39:52.196Z,24.77
2017-09-27T22:42:20.483Z,17.83
2017-09-27T22:44:48.762Z,17.27
2017-09-27T22:47:17.105Z,20.35
2017-09-27T22:49:44.637Z,21.77
2017-09-27T22:52:12.146Z,19.42
2017-09-27T22:54:40.452Z,16.85
2017-09-27T22:57:07.972Z,16.85
2017-09-27T22:59:35.502Z,17.40
2017-09-27T23:02:03.024Z,18.05
2017-09-27T23:04:30.569Z,18.37
2017-09-27T23:06:58.126Z,18.50
2017-09-27T23:09:26.397Z,17.98
2017-09-27T23:11:53.925Z,18.90
2017-09-27T23:14:21.488Z,17.55
2017-09-27T23:16:49.012Z,17.48
2017-09-27T23:19:16.614Z,16.80
2017-09-27T23:21:44.130Z,18.35
2017-09-27T23:24:11.644Z,17.48
2017-09-27T23:26:39.169Z,18.77
2017-09-27T23:29:06.782Z,16.60
2017-09-27T23:31:34.328Z,17.85
2017-09-27T23:34:01.861Z,18.65
2017-09-27T23:36:29.386Z,18.10
2017-09-27T23:38:56.930Z,20.27
2017-09-27T23:41:25.207Z,17.70
2017-09-27T23:43:53.508Z,18.23
2017-09-27T23:46:21.048Z,17.37
2017-09-27T23:48:48.596Z,18.90
2017-09-27T23:51:16.905Z,21.55
2017-09-27T23:53:44.422Z,19.17
2017-09-27T23:56:11.955Z,16.77
2017-09-27T23:58:39.465Z,18.30
